Souda — SVBH5 — position and weather

sailwx.info

Track history (hours):
 
Tides and Currents Weather Stations Pressure Air Temp Water Temp Dewpoint Dewpoint Depression Visibility Wind Speed Wind Dir Waves Ship Positions

Souda

Last reported at 2014-Jul-23 02:33 UTC. Time now 2014-Jul-24 00:16 UTC.
Position N 37°50' E 023°34'.

Length 88 m; draft 5 m.

Type: Tanker. MMSI: 241109000.

Date/timePositionNaut miles runAvg speedWind from/ knotsBaromVisibWave heightAir tempDewpointWater temp
2014-Jul-23 02:33N 37°50' E 023°34'8 7.9
2014-Jul-23 01:33N 37°45' E 023°42'31 9.0
2014-Jul-22 22:09N 37°15' E 023°52'5 9.3
2014-Jul-22 21:33N 37°09' E 023°53'10 9.3
2014-Jul-22 20:29N 36°60' E 023°55'9 9.1
2014-Jul-22 19:33N 36°51' E 023°58'9 9.0
2014-Jul-22 18:32N 36°42' E 023°59'9 8.8
2014-Jul-22 17:33N 36°34' E 024°01'9 8.7
2014-Jul-22 16:32N 36°25' E 024°03'9 9.1
2014-Jul-22 15:33N 36°16' E 024°05'10 9.3
2014-Jul-22 14:31N 36°07' E 024°07'9 9.2
2014-Jul-22 13:33N 35°58' E 024°09'  
2014-Jul-15 21:29N 37°55' E 023°07'7 7.0
2014-Jul-15 20:33N 37°53' E 023°15'8 8.4
2014-Jul-15 19:33N 37°51' E 023°25'7 7.4
2014-Jul-15 18:33N 37°52' E 023°34'5 5.1
2014-Jul-15 17:32N 37°57' E 023°35'0 0.0
2014-Jul-15 16:32N 37°57' E 023°35'0 0.0
2014-Jul-15 15:32N 37°57' E 023°35'0 0.0
2014-Jul-15 14:29N 37°57' E 023°35'0 0.0
2014-Jul-15 13:32N 37°57' E 023°35'0 0.0
2014-Jul-15 12:32N 37°57' E 023°35'0 0.0
2014-Jul-15 11:32N 37°57' E 023°35'0 0.0
2014-Jul-15 10:32N 37°57' E 023°35'0 0.0
2014-Jul-15 09:32N 37°57' E 023°35'0 0.0
2014-Jul-15 08:32N 37°57' E 023°35'0 0.0
2014-Jul-15 07:32N 37°57' E 023°35'0 0.0
2014-Jul-15 06:32N 37°57' E 023°35'0 0.0
2014-Jul-15 05:32N 37°57' E 023°35'0 0.2
2014-Jul-15 04:33N 37°57' E 023°35'4 4.1
2014-Jul-15 03:33N 37°53' E 023°33'1 0.6
2014-Jul-15 02:32N 37°53' E 023°33'0 0.0
2014-Jul-15 01:32N 37°53' E 023°33'0 0.0
2014-Jul-15 00:32N 37°53' E 023°32'0 0.0
2014-Jul-14 23:32N 37°53' E 023°32'0 0.0
2014-Jul-14 22:33N 37°53' E 023°32'6 6.4
2014-Jul-14 21:33N 37°51' E 023°25'12 9.1
2014-Jul-14 20:16N 37°53' E 023°10'15 0.4
2014-Jul-13 06:07N 37°50' E 023°29'5 8.5
2014-Jul-13 05:32N 37°49' E 023°36'8 7.4
2014-Jul-13 04:30N 37°44' E 023°43'  
Track history (hours):
 
Tides and Currents Weather Stations Pressure Air Temp Water Temp Dewpoint Dewpoint Depression Visibility Wind Speed Wind Dir Waves Ship Positions

Souda

Last reported at 2014-Jul-23 02:33 UTC. Time now 2014-Jul-24 00:16 UTC.
Position N 37°50' E 023°34'.

Length 88 m; draft 5 m.

Type: Tanker. MMSI: 241109000.

Date/timePositionNaut miles runAvg speedWind from/ knotsBaromVisibWave heightAir tempDewpointWater temp
2014-Jul-23 02:33N 37°50' E 023°34'8 7.9
2014-Jul-23 01:33N 37°45' E 023°42'31 9.0
2014-Jul-22 22:09N 37°15' E 023°52'5 9.3
2014-Jul-22 21:33N 37°09' E 023°53'10 9.3
2014-Jul-22 20:29N 36°60' E 023°55'9 9.1
2014-Jul-22 19:33N 36°51' E 023°58'9 9.0
2014-Jul-22 18:32N 36°42' E 023°59'9 8.8
2014-Jul-22 17:33N 36°34' E 024°01'9 8.7
2014-Jul-22 16:32N 36°25' E 024°03'9 9.1
2014-Jul-22 15:33N 36°16' E 024°05'10 9.3
2014-Jul-22 14:31N 36°07' E 024°07'9 9.2
2014-Jul-22 13:33N 35°58' E 024°09'  
2014-Jul-15 21:29N 37°55' E 023°07'7 7.0
2014-Jul-15 20:33N 37°53' E 023°15'8 8.4
2014-Jul-15 19:33N 37°51' E 023°25'7 7.4
2014-Jul-15 18:33N 37°52' E 023°34'5 5.1
2014-Jul-15 17:32N 37°57' E 023°35'0 0.0
2014-Jul-15 16:32N 37°57' E 023°35'0 0.0
2014-Jul-15 15:32N 37°57' E 023°35'0 0.0
2014-Jul-15 14:29N 37°57' E 023°35'0 0.0
2014-Jul-15 13:32N 37°57' E 023°35'0 0.0
2014-Jul-15 12:32N 37°57' E 023°35'0 0.0
2014-Jul-15 11:32N 37°57' E 023°35'0 0.0
2014-Jul-15 10:32N 37°57' E 023°35'0 0.0
2014-Jul-15 09:32N 37°57' E 023°35'0 0.0
2014-Jul-15 08:32N 37°57' E 023°35'0 0.0
2014-Jul-15 07:32N 37°57' E 023°35'0 0.0
2014-Jul-15 06:32N 37°57' E 023°35'0 0.0
2014-Jul-15 05:32N 37°57' E 023°35'0 0.2
2014-Jul-15 04:33N 37°57' E 023°35'4 4.1
2014-Jul-15 03:33N 37°53' E 023°33'1 0.6
2014-Jul-15 02:32N 37°53' E 023°33'0 0.0
2014-Jul-15 01:32N 37°53' E 023°33'0 0.0
2014-Jul-15 00:32N 37°53' E 023°32'0 0.0
2014-Jul-14 23:32N 37°53' E 023°32'0 0.0
2014-Jul-14 22:33N 37°53' E 023°32'6 6.4
2014-Jul-14 21:33N 37°51' E 023°25'12 9.1
2014-Jul-14 20:16N 37°53' E 023°10'15 0.4
2014-Jul-13 06:07N 37°50' E 023°29'5 8.5
2014-Jul-13 05:32N 37°49' E 023°36'8 7.4
2014-Jul-13 04:30N 37°44' E 023°43'  

Dump ship's entire track history